createdAt,value
2023-05-10T00:04:45.951Z,6.72
2023-05-10T00:09:48.951Z,6.71
2023-05-10T00:14:52.058Z,6.66
2023-05-10T00:19:55.572Z,6.58
2023-05-10T00:24:58.985Z,6.47
2023-05-10T00:30:02.120Z,6.36
2023-05-10T00:35:05.403Z,6.24
2023-05-10T00:40:08.804Z,6.13
2023-05-10T00:45:12.730Z,6.03
2023-05-10T00:50:17.032Z,5.93
2023-05-10T00:55:21.102Z,5.83
2023-05-10T01:00:24.104Z,5.74
2023-05-10T01:05:28.744Z,5.70
2023-05-10T01:10:32.369Z,5.71
2023-05-10T01:15:35.913Z,5.74
2023-05-10T01:20:42.988Z,5.74
2023-05-10T01:25:46.087Z,5.71
2023-05-10T01:30:59.751Z,5.69
2023-05-10T01:36:07.867Z,5.67
2023-05-10T01:41:16.192Z,5.62
2023-05-10T01:46:21.863Z,5.57
2023-05-10T01:51:26.801Z,5.52
2023-05-10T01:56:32.255Z,5.49
2023-05-10T02:01:38.047Z,5.48
2023-05-10T02:06:42.564Z,5.50
2023-05-10T02:11:45.564Z,5.53
2023-05-10T02:16:49.640Z,5.56
2023-05-10T02:21:53.214Z,5.57
2023-05-10T02:26:59.386Z,5.57
2023-05-10T02:32:03.362Z,5.56
2023-05-10T02:37:07.359Z,5.55
2023-05-10T02:42:14.953Z,5.54
2023-05-10T02:47:19.390Z,5.51
2023-05-10T02:52:30.488Z,5.51
2023-05-10T02:57:35.128Z,5.53
2023-05-10T03:02:38.166Z,5.55
2023-05-10T03:07:41.548Z,5.58
2023-05-10T03:12:50.702Z,5.64
2023-05-10T03:17:58.665Z,5.68
2023-05-10T03:23:05.985Z,5.73
2023-05-10T03:28:10.141Z,5.80
2023-05-10T03:33:14.480Z,5.90
2023-05-10T03:38:17.480Z,6.02
2023-05-10T03:43:20.586Z,6.18
2023-05-10T03:48:23.485Z,6.40
2023-05-10T03:53:26.695Z,6.78
2023-05-10T03:58:29.705Z,7.78
2023-05-10T04:03:32.778Z,9.17
2023-05-10T04:08:36.222Z,10.44
2023-05-10T04:13:39.736Z,11.51
2023-05-10T04:18:42.845Z,12.54
2023-05-10T04:23:46.052Z,13.34
2023-05-10T04:28:49.156Z,13.96
2023-05-10T04:33:52.670Z,14.53
2023-05-10T04:38:55.768Z,15.07
2023-05-10T04:43:58.789Z,15.74
2023-05-10T04:49:02.293Z,16.27
2023-05-10T04:54:06.774Z,16.75
2023-05-10T04:59:10.149Z,17.12
2023-05-10T05:04:13.041Z,17.61
2023-05-10T05:09:16.148Z,17.99
2023-05-10T05:14:19.151Z,18.53
2023-05-10T05:19:22.150Z,19.10
2023-05-10T05:24:25.459Z,19.65
2023-05-10T05:29:28.998Z,19.94
2023-05-10T05:34:32.085Z,20.10
2023-05-10T05:39:37.456Z,20.60
2023-05-10T05:44:40.751Z,21.19
2023-05-10T05:49:43.858Z,21.56
2023-05-10T05:54:46.863Z,21.96
2023-05-10T05:59:49.862Z,22.20
2023-05-10T06:04:53.071Z,22.65
2023-05-10T06:09:55.971Z,22.86
2023-05-10T06:14:58.871Z,23.15
2023-05-10T06:20:02.144Z,23.57
2023-05-10T06:25:05.808Z,23.76
2023-05-10T06:30:13.428Z,23.89
2023-05-10T06:35:16.935Z,24.12
2023-05-10T06:40:20.640Z,24.28
2023-05-10T06:45:23.749Z,24.73
2023-05-10T06:50:26.998Z,25.25
2023-05-10T06:55:30.484Z,26.00
2023-05-10T07:00:33.512Z,27.09
2023-05-10T07:05:36.804Z,27.88
2023-05-10T07:10:40.006Z,28.52
2023-05-10T07:15:43.619Z,28.35
2023-05-10T07:20:46.962Z,28.17
2023-05-10T07:25:50.950Z,28.31
2023-05-10T07:30:54.006Z,28.65
2023-05-10T07:35:57.005Z,28.39
2023-05-10T07:40:59.959Z,28.32
2023-05-10T07:46:03.120Z,28.43
2023-05-10T07:51:07.715Z,29.19
2023-05-10T07:56:28.524Z,28.96
2023-05-10T08:01:33.603Z,29.12
2023-05-10T08:06:36.682Z,29.59
2023-05-10T08:11:39.597Z,28.81
2023-05-10T08:16:42.583Z,28.90
2023-05-10T08:21:46.108Z,29.06
2023-05-10T08:26:49.533Z,28.70
2023-05-10T08:31:52.978Z,28.51
2023-05-10T08:36:56.033Z,28.47
2023-05-10T08:42:03.146Z,28.43
2023-05-10T08:47:10.843Z,28.46
2023-05-10T08:52:14.630Z,28.37
2023-05-10T08:57:18.390Z,28.48
2023-05-10T09:02:21.712Z,28.47
2023-05-10T09:07:25.009Z,27.82
2023-05-10T09:12:30.284Z,27.56
2023-05-10T09:17:35.014Z,27.51
2023-05-10T09:22:39.048Z,27.76
2023-05-10T09:27:43.203Z,28.10
2023-05-10T09:32:47.657Z,27.91
2023-05-10T09:37:52.449Z,27.95
2023-05-10T09:42:57.189Z,28.20
2023-05-10T09:48:01.993Z,28.17
2023-05-10T09:53:05.134Z,27.64
2023-05-10T09:58:12.021Z,27.24
2023-05-10T10:03:16.490Z,26.73
2023-05-10T10:08:19.592Z,25.55
2023-05-10T10:13:22.713Z,23.83
2023-05-10T10:18:28.414Z,22.55
2023-05-10T10:23:31.769Z,21.57
2023-05-10T10:28:37.747Z,21.02
2023-05-10T10:33:53.544Z,20.74
2023-05-10T10:39:00.868Z,20.39
2023-05-10T10:44:23.469Z,20.05
2023-05-10T10:49:26.620Z,19.87
2023-05-10T10:54:29.779Z,19.87
2023-05-10T10:59:32.932Z,20.02
2023-05-10T11:04:47.764Z,20.01
2023-05-10T11:09:51.133Z,19.96
2023-05-10T11:14:58.426Z,20.01
2023-05-10T11:20:08.695Z,20.03
2023-05-10T11:25:12.332Z,20.17
2023-05-10T11:30:16.586Z,20.21
2023-05-10T11:35:19.865Z,20.03
2023-05-10T11:40:24.920Z,20.00
2023-05-10T11:45:29.318Z,20.09
2023-05-10T11:50:32.707Z,20.23
2023-05-10T11:55:35.867Z,20.40
2023-05-10T12:00:39.178Z,20.25
2023-05-10T12:05:43.246Z,20.06
2023-05-10T12:10:46.409Z,20.09
2023-05-10T12:15:49.418Z,20.14
2023-05-10T12:20:55.793Z,20.02
2023-05-10T12:26:04.017Z,19.97
2023-05-10T12:31:07.643Z,20.12
2023-05-10T12:36:11.359Z,20.25
2023-05-10T12:41:16.143Z,20.28
2023-05-10T12:46:20.159Z,20.24
2023-05-10T12:51:24.059Z,20.28
2023-05-10T12:56:27.286Z,20.34
2023-05-10T13:01:30.324Z,20.27
2023-05-10T13:06:33.368Z,20.23
2023-05-10T13:11:36.378Z,20.31
2023-05-10T13:16:39.396Z,20.28
2023-05-10T13:21:42.683Z,20.04
2023-05-10T13:26:46.109Z,19.98
2023-05-10T13:31:50.666Z,19.97
2023-05-10T13:36:55.084Z,19.95
2023-05-10T13:41:58.085Z,20.06
2023-05-10T13:47:01.106Z,20.09
2023-05-10T13:52:08.202Z,20.20
2023-05-10T13:57:13.883Z,20.26
2023-05-10T14:02:17.268Z,20.29
2023-05-10T14:07:20.393Z,20.29
2023-05-10T14:12:23.576Z,20.30
2023-05-10T14:17:26.694Z,20.26
2023-05-10T14:22:30.214Z,20.17
2023-05-10T14:27:33.621Z,20.13
2023-05-10T14:32:37.981Z,20.14
2023-05-10T14:37:41.769Z,20.06
2023-05-10T14:42:45.188Z,19.96
2023-05-10T14:47:49.030Z,19.89
2023-05-10T14:52:52.307Z,19.75
2023-05-10T14:57:55.929Z,19.62
2023-05-10T15:02:59.082Z,19.59
2023-05-10T15:08:02.563Z,19.53
2023-05-10T15:13:06.284Z,19.51
2023-05-10T15:18:12.316Z,19.44
2023-05-10T15:23:15.344Z,19.27
2023-05-10T15:28:18.561Z,19.21
2023-05-10T15:33:22.286Z,19.19
2023-05-10T15:38:25.694Z,19.18
2023-05-10T15:43:28.945Z,19.15
2023-05-10T15:48:32.620Z,19.13
2023-05-10T15:53:36.442Z,19.09
2023-05-10T15:58:39.949Z,19.02
2023-05-10T16:03:43.366Z,19.01
2023-05-10T16:08:46.378Z,18.96
2023-05-10T16:13:49.477Z,18.89
2023-05-10T16:18:53.169Z,18.82
2023-05-10T16:23:56.813Z,18.77
2023-05-10T16:28:59.821Z,18.74
2023-05-10T16:34:03.341Z,18.67
2023-05-10T16:39:07.060Z,18.64
2023-05-10T16:44:11.393Z,18.54
2023-05-10T16:49:14.904Z,18.42
2023-05-10T16:54:19.050Z,18.33
2023-05-10T16:59:22.664Z,18.23
2023-05-10T17:04:25.777Z,18.14
2023-05-10T17:09:32.182Z,18.04
2023-05-10T17:14:36.002Z,17.90
2023-05-10T17:19:39.616Z,17.77
2023-05-10T17:24:45.351Z,17.65
2023-05-10T17:29:48.988Z,17.52
2023-05-10T17:34:52.395Z,17.37
2023-05-10T17:39:55.902Z,17.23
2023-05-10T17:44:59.932Z,17.06
2023-05-10T17:50:04.387Z,16.91
2023-05-10T17:55:09.139Z,16.75
2023-05-10T18:00:13.053Z,16.58
2023-05-10T18:05:16.985Z,16.38
2023-05-10T18:10:21.198Z,16.19
2023-05-10T18:15:26.255Z,16.00
2023-05-10T18:20:29.765Z,15.80
2023-05-10T18:25:33.899Z,15.62
2023-05-10T18:30:37.806Z,15.46
2023-05-10T18:35:41.448Z,15.33
2023-05-10T18:40:44.941Z,15.21
2023-05-10T18:45:49.056Z,15.08
2023-05-10T18:50:52.708Z,14.95
2023-05-10T18:55:57.970Z,14.79
2023-05-10T19:01:01.585Z,14.61
2023-05-10T19:06:05.182Z,14.42
2023-05-10T19:11:08.802Z,14.23
2023-05-10T19:16:15.216Z,14.08
2023-05-10T19:21:18.480Z,13.95
2023-05-10T19:26:23.386Z,13.82
2023-05-10T19:31:27.320Z,13.69
2023-05-10T19:36:32.004Z,13.57
2023-05-10T19:41:36.703Z,13.46
2023-05-10T19:46:40.485Z,13.35
2023-05-10T19:51:45.099Z,13.20
2023-05-10T19:56:48.824Z,13.07
2023-05-10T20:01:52.233Z,12.89
2023-05-10T20:06:56.169Z,12.68
2023-05-10T20:11:59.914Z,12.45
2023-05-10T20:17:03.738Z,12.21
2023-05-10T20:22:09.712Z,11.98
2023-05-10T20:27:18.147Z,11.72
2023-05-10T20:32:21.657Z,11.43
2023-05-10T20:37:25.312Z,11.15
2023-05-10T20:42:28.675Z,10.91
2023-05-10T20:47:32.942Z,10.70
2023-05-10T20:52:36.015Z,10.50
2023-05-10T20:57:39.921Z,10.29
2023-05-10T21:02:45.246Z,10.14
2023-05-10T21:07:49.600Z,9.99
2023-05-10T21:12:52.761Z,9.80
2023-05-10T21:17:56.000Z,9.61
2023-05-10T21:22:59.271Z,9.43
2023-05-10T21:28:02.344Z,9.27
2023-05-10T21:33:05.460Z,9.11
2023-05-10T21:38:09.803Z,8.97
2023-05-10T21:43:12.905Z,8.83
2023-05-10T21:48:15.976Z,8.71
2023-05-10T21:53:19.006Z,8.61
2023-05-10T21:58:22.547Z,8.50
2023-05-10T22:03:26.654Z,8.39
2023-05-10T22:08:29.955Z,8.29
2023-05-10T22:13:32.955Z,8.20
2023-05-10T22:18:36.738Z,8.14
2023-05-10T22:23:39.784Z,8.08
2023-05-10T22:28:42.886Z,8.02
2023-05-10T22:33:45.994Z,8.01
2023-05-10T22:38:48.997Z,8.03
2023-05-10T22:43:52.004Z,8.05
2023-05-10T22:48:55.452Z,8.06
2023-05-10T22:53:58.418Z,8.08
2023-05-10T22:59:01.534Z,8.10
2023-05-10T23:04:04.639Z,8.14
2023-05-10T23:09:08.248Z,8.17
2023-05-10T23:14:11.249Z,8.19
2023-05-10T23:19:14.093Z,8.19
2023-05-10T23:24:17.868Z,8.16
2023-05-10T23:29:20.771Z,8.09
2023-05-10T23:34:23.770Z,8.01
2023-05-10T23:39:27.254Z,7.92
2023-05-10T23:44:30.299Z,7.79
2023-05-10T23:49:33.303Z,7.65
2023-05-10T23:54:36.404Z,7.50
2023-05-10T23:59:39.329Z,7.37
